Bochem Mumbai — VRHJ8 — position and weather

sailwx.info

Track history (hours):
 
Tides and Currents Weather Stations Pressure Air Temp Water Temp Dewpoint Dewpoint Depression Visibility Wind Speed Wind Dir Waves Ship Positions

Bochem Mumbai

Last reported at 2016-May-26 11:33 UTC. Time now 2016-May-27 08:31 UTC.
Position N 01°16' E 104°13'.

Length 171 m; draft 10.8 m.

Type: Ship (hazmat cat C). MMSI: 477932400.

Date/timePositionNaut miles runAvg speedWind from/ knotsBaromVisibWave heightAir tempDewpointWater temp
2016-May-26 11:33N 01°16' E 104°13'1212.6
2016-May-26 10:33N 01°14' E 104°01'1212.1
2016-May-26 09:33N 01°10' E 103°50'1211.8
2016-May-26 08:34N 01°03' E 103°40'9 9.2
2016-May-26 07:32N 01°10' E 103°34'6 5.9
2016-May-26 06:33N 01°13' E 103°39'0 0.1
2016-May-26 05:27N 01°13' E 103°39'0 0.1
2016-May-26 04:33N 01°13' E 103°39'0 0.0
2016-May-26 03:18N 01°13' E 103°39'0 0.1
2016-May-26 02:33N 01°13' E 103°39'0 0.0
2016-May-26 01:27N 01°13' E 103°39'0 0.1
2016-May-26 00:33N 01°13' E 103°39'0 0.1
2016-May-25 23:33N 01°13' E 103°39'0 0.0
2016-May-25 20:33N 01°13' E 103°39'0 0.1
2016-May-25 19:33N 01°13' E 103°39'0 0.1
2016-May-25 18:27N 01°13' E 103°39'0 0.1
2016-May-25 17:15N 01°13' E 103°39'0 0.3
2016-May-25 16:33N 01°13' E 103°39'4 4.2
2016-May-25 15:33N 01°15' E 103°43'0 0.0
2016-May-25 14:33N 01°15' E 103°43'0 0.0
2016-May-25 13:33N 01°15' E 103°43'0 0.0
2016-May-25 12:33N 01°15' E 103°43'0 0.0
2016-May-25 11:33N 01°15' E 103°43'0 0.0
2016-May-25 10:33N 01°15' E 103°43'0 0.0
2016-May-25 09:33N 01°15' E 103°43'0 0.0
2016-May-25 08:33N 01°15' E 103°43'0 0.0
2016-May-25 07:33N 01°15' E 103°43'0 0.0
2016-May-25 06:33N 01°15' E 103°43'0 0.0
2016-May-25 05:33N 01°15' E 103°43'0 0.0
2016-May-25 04:33N 01°15' E 103°43'0 0.0
2016-May-25 03:33N 01°15' E 103°43'0 0.0
2016-May-25 02:33N 01°15' E 103°43'0 0.0
2016-May-25 01:33N 01°15' E 103°43'0 0.0
2016-May-25 00:33N 01°15' E 103°43'0 0.0
2016-May-24 23:33N 01°15' E 103°43'0 0.0
2016-May-24 22:33N 01°15' E 103°43'0 0.0
2016-May-24 21:33N 01°15' E 103°43'0 0.0
2016-May-24 20:33N 01°15' E 103°43'0 0.0
2016-May-24 19:33N 01°15' E 103°43'0 0.0
2016-May-24 18:33N 01°15' E 103°43'0 0.0
2016-May-24 17:33N 01°15' E 103°43'0 0.0
2016-May-24 16:33N 01°15' E 103°43'0 0.0
2016-May-24 15:33N 01°15' E 103°43'0 0.0
2016-May-24 12:07N 01°15' E 103°43'0 0.2
2016-May-24 11:33N 01°15' E 103°43'61 5.5
2016-May-24 00:33N 01°38' E 102°46'1913.3
2016-May-23 23:05N 01°46' E 102°29'712.6
2016-May-23 22:32N 01°49' E 102°22'  
Track history (hours):
 
Tides and Currents Weather Stations Pressure Air Temp Water Temp Dewpoint Dewpoint Depression Visibility Wind Speed Wind Dir Waves Ship Positions

Bochem Mumbai

Last reported at 2016-May-26 11:33 UTC. Time now 2016-May-27 08:31 UTC.
Position N 01°16' E 104°13'.

Length 171 m; draft 10.8 m.

Type: Ship (hazmat cat C). MMSI: 477932400.

Date/timePositionNaut miles runAvg speedWind from/ knotsBaromVisibWave heightAir tempDewpointWater temp
2016-May-26 11:33N 01°16' E 104°13'1212.6
2016-May-26 10:33N 01°14' E 104°01'1212.1
2016-May-26 09:33N 01°10' E 103°50'1211.8
2016-May-26 08:34N 01°03' E 103°40'9 9.2
2016-May-26 07:32N 01°10' E 103°34'6 5.9
2016-May-26 06:33N 01°13' E 103°39'0 0.1
2016-May-26 05:27N 01°13' E 103°39'0 0.1
2016-May-26 04:33N 01°13' E 103°39'0 0.0
2016-May-26 03:18N 01°13' E 103°39'0 0.1
2016-May-26 02:33N 01°13' E 103°39'0 0.0
2016-May-26 01:27N 01°13' E 103°39'0 0.1
2016-May-26 00:33N 01°13' E 103°39'0 0.1
2016-May-25 23:33N 01°13' E 103°39'0 0.0
2016-May-25 20:33N 01°13' E 103°39'0 0.1
2016-May-25 19:33N 01°13' E 103°39'0 0.1
2016-May-25 18:27N 01°13' E 103°39'0 0.1
2016-May-25 17:15N 01°13' E 103°39'0 0.3
2016-May-25 16:33N 01°13' E 103°39'4 4.2
2016-May-25 15:33N 01°15' E 103°43'0 0.0
2016-May-25 14:33N 01°15' E 103°43'0 0.0
2016-May-25 13:33N 01°15' E 103°43'0 0.0
2016-May-25 12:33N 01°15' E 103°43'0 0.0
2016-May-25 11:33N 01°15' E 103°43'0 0.0
2016-May-25 10:33N 01°15' E 103°43'0 0.0
2016-May-25 09:33N 01°15' E 103°43'0 0.0
2016-May-25 08:33N 01°15' E 103°43'0 0.0
2016-May-25 07:33N 01°15' E 103°43'0 0.0
2016-May-25 06:33N 01°15' E 103°43'0 0.0
2016-May-25 05:33N 01°15' E 103°43'0 0.0
2016-May-25 04:33N 01°15' E 103°43'0 0.0
2016-May-25 03:33N 01°15' E 103°43'0 0.0
2016-May-25 02:33N 01°15' E 103°43'0 0.0
2016-May-25 01:33N 01°15' E 103°43'0 0.0
2016-May-25 00:33N 01°15' E 103°43'0 0.0
2016-May-24 23:33N 01°15' E 103°43'0 0.0
2016-May-24 22:33N 01°15' E 103°43'0 0.0
2016-May-24 21:33N 01°15' E 103°43'0 0.0
2016-May-24 20:33N 01°15' E 103°43'0 0.0
2016-May-24 19:33N 01°15' E 103°43'0 0.0
2016-May-24 18:33N 01°15' E 103°43'0 0.0
2016-May-24 17:33N 01°15' E 103°43'0 0.0
2016-May-24 16:33N 01°15' E 103°43'0 0.0
2016-May-24 15:33N 01°15' E 103°43'0 0.0
2016-May-24 12:07N 01°15' E 103°43'0 0.2
2016-May-24 11:33N 01°15' E 103°43'61 5.5
2016-May-24 00:33N 01°38' E 102°46'1913.3
2016-May-23 23:05N 01°46' E 102°29'712.6
2016-May-23 22:32N 01°49' E 102°22'  

Dump ship's entire track history